createdAt,value
2023-03-12T00:00:22.634Z,0.16
2023-03-12T00:01:22.622Z,0.11
2023-03-12T00:02:22.655Z,0.11
2023-03-12T00:03:22.644Z,0.05
2023-03-12T00:04:22.586Z,0.16
2023-03-12T00:05:22.590Z,0.15
2023-03-12T00:06:22.592Z,0.18
2023-03-12T00:07:22.544Z,0.18
2023-03-12T00:08:22.530Z,0.23
2023-03-12T00:09:22.505Z,0.23
2023-03-12T00:10:22.497Z,0.28
2023-03-12T00:11:22.490Z,0.31
2023-03-12T00:12:22.496Z,0.36
2023-03-12T00:13:22.457Z,0.37
2023-03-12T00:14:22.453Z,0.34
2023-03-12T00:15:22.430Z,0.36
2023-03-12T00:16:22.535Z,0.32
2023-03-12T00:17:22.422Z,0.40
2023-03-12T00:18:22.391Z,0.34
2023-03-12T00:19:22.399Z,0.39
2023-03-12T00:20:22.374Z,0.39
2023-03-12T00:21:22.390Z,0.41
2023-03-12T00:22:22.354Z,0.44
2023-03-12T00:23:22.362Z,0.49
2023-03-12T00:24:22.322Z,0.55
2023-03-12T00:25:22.326Z,0.59
2023-03-12T00:26:22.299Z,0.65
2023-03-12T00:27:22.282Z,0.65
2023-03-12T00:28:22.285Z,0.66
2023-03-12T00:29:22.265Z,0.60
2023-03-12T00:30:22.236Z,0.59
2023-03-12T00:31:22.294Z,0.60
2023-03-12T00:32:22.249Z,0.58
2023-03-12T00:33:22.199Z,0.56
2023-03-12T00:34:22.191Z,0.55
2023-03-12T00:35:22.184Z,0.49
2023-03-12T00:36:22.177Z,0.52
2023-03-12T00:37:22.160Z,0.47
2023-03-12T00:38:22.142Z,0.46
2023-03-12T00:39:22.123Z,0.43
2023-03-12T00:40:22.114Z,0.43
2023-03-12T00:41:22.090Z,0.34
2023-03-12T00:42:22.085Z,0.32
2023-03-12T00:43:22.064Z,0.36
2023-03-12T00:44:22.097Z,0.43
2023-03-12T00:45:22.041Z,0.47
2023-03-12T00:46:22.124Z,0.46
2023-03-12T00:47:22.014Z,0.52
2023-03-12T00:48:22.001Z,0.62
2023-03-12T00:49:21.997Z,0.62
2023-03-12T00:50:21.981Z,0.59
2023-03-12T00:51:21.967Z,0.65
2023-03-12T00:52:21.948Z,0.65
2023-03-12T00:53:21.939Z,0.56
2023-03-12T00:54:21.927Z,0.56
2023-03-12T00:55:21.915Z,0.56
2023-03-12T00:56:21.904Z,0.58
2023-03-12T00:57:21.897Z,0.59
2023-03-12T00:58:21.882Z,0.62
2023-03-12T00:59:21.866Z,0.59
2023-03-12T01:00:21.869Z,0.52
2023-03-12T01:01:21.829Z,0.49
2023-03-12T01:02:21.819Z,0.47
2023-03-12T01:03:21.813Z,0.43
2023-03-12T01:04:21.866Z,0.40
2023-03-12T01:05:21.780Z,0.43
2023-03-12T01:06:21.775Z,0.39
2023-03-12T01:07:21.755Z,0.37
2023-03-12T01:08:21.747Z,0.36
2023-03-12T01:09:21.732Z,0.41
2023-03-12T01:10:21.741Z,0.41
2023-03-12T01:11:21.720Z,0.44
2023-03-12T01:12:21.692Z,0.44
2023-03-12T01:13:21.688Z,0.43
2023-03-12T01:14:21.674Z,0.49
2023-03-12T01:15:21.654Z,0.52
2023-03-12T01:16:21.752Z,0.46
2023-03-12T01:17:21.645Z,0.46
2023-03-12T01:18:21.614Z,0.44
2023-03-12T01:19:21.600Z,0.50
2023-03-12T01:20:21.590Z,0.46
2023-03-12T01:21:21.595Z,0.39
2023-03-12T01:22:21.574Z,0.49
2023-03-12T01:23:21.558Z,0.46
2023-03-12T01:24:21.548Z,0.43
2023-03-12T01:25:21.532Z,0.43
2023-03-12T01:26:21.510Z,0.44
2023-03-12T01:27:21.508Z,0.49
2023-03-12T01:28:21.492Z,0.52
2023-03-12T01:29:21.482Z,0.47
2023-03-12T01:30:21.469Z,0.46
2023-03-12T01:31:21.554Z,0.47
2023-03-12T01:32:21.504Z,0.50
2023-03-12T01:33:21.426Z,0.49
2023-03-12T01:34:21.409Z,0.50
2023-03-12T01:35:21.436Z,0.55
2023-03-12T01:36:21.444Z,0.55
2023-03-12T01:37:21.368Z,0.55
2023-03-12T01:38:21.380Z,0.56
2023-03-12T01:39:21.349Z,0.47
2023-03-12T01:40:21.331Z,0.46
2023-03-12T01:41:21.325Z,0.43
2023-03-12T01:42:21.305Z,0.49
2023-03-12T01:43:21.303Z,0.52
2023-03-12T01:44:21.273Z,0.46
2023-03-12T01:45:21.261Z,0.49
2023-03-12T01:46:21.258Z,0.50
2023-03-12T01:47:21.242Z,0.52
2023-03-12T01:48:21.255Z,0.55
2023-03-12T01:49:21.206Z,0.47
2023-03-12T01:50:21.192Z,0.37
2023-03-12T01:51:21.181Z,0.39
2023-03-12T01:52:21.169Z,0.32
2023-03-12T01:53:21.158Z,0.28
2023-03-12T01:54:21.168Z,0.36
2023-03-12T01:55:21.135Z,0.39
2023-03-12T01:56:21.114Z,0.41
2023-03-12T01:57:21.112Z,0.44
2023-03-12T01:58:21.095Z,0.43
2023-03-12T01:59:21.090Z,0.43
2023-03-12T02:00:21.065Z,0.41
2023-03-12T02:01:21.187Z,0.41
2023-03-12T02:02:21.040Z,0.47
2023-03-12T02:03:21.020Z,0.41
2023-03-12T02:04:21.059Z,0.47
2023-03-12T02:05:20.995Z,0.56
2023-03-12T02:06:20.992Z,0.58
2023-03-12T02:07:20.983Z,0.58
2023-03-12T02:08:20.956Z,0.58
2023-03-12T02:09:20.942Z,0.50
2023-03-12T02:10:20.939Z,0.52
2023-03-12T02:11:20.926Z,0.47
2023-03-12T02:12:20.906Z,0.47
2023-03-12T02:13:20.900Z,0.44
2023-03-12T02:14:20.898Z,0.40
2023-03-12T02:15:20.874Z,0.41
2023-03-12T02:16:20.875Z,0.40
2023-03-12T02:17:20.854Z,0.36
2023-03-12T02:18:20.827Z,0.43
2023-03-12T02:19:20.815Z,0.37
2023-03-12T02:20:20.855Z,0.50
2023-03-12T02:21:20.806Z,0.44
2023-03-12T02:22:20.789Z,0.49
2023-03-12T02:23:20.764Z,0.50
2023-03-12T02:24:20.761Z,0.58
2023-03-12T02:25:20.744Z,0.59
2023-03-12T02:26:20.741Z,0.59
2023-03-12T02:27:20.720Z,0.60
2023-03-12T02:28:20.707Z,0.63
2023-03-12T02:29:20.689Z,0.66
2023-03-12T02:30:20.692Z,0.66
2023-03-12T02:31:20.733Z,0.65
2023-03-12T02:32:20.731Z,0.63
2023-03-12T02:33:20.633Z,0.65
2023-03-12T02:34:20.645Z,0.69
2023-03-12T02:35:20.608Z,0.69
2023-03-12T02:36:20.627Z,0.70
2023-03-12T02:37:20.597Z,0.77
2023-03-12T02:38:20.575Z,0.83
2023-03-12T02:39:20.564Z,0.84
2023-03-12T02:40:20.553Z,0.84
2023-03-12T02:41:20.544Z,0.84
2023-03-12T02:42:20.526Z,0.83
2023-03-12T02:43:20.503Z,0.81
2023-03-12T02:44:20.489Z,0.83
2023-03-12T02:45:20.480Z,0.83
2023-03-12T02:46:20.544Z,0.86
2023-03-12T02:47:20.460Z,0.91
2023-03-12T02:48:20.447Z,0.87
2023-03-12T02:49:20.437Z,0.92
2023-03-12T02:50:20.421Z,0.88
2023-03-12T02:51:20.404Z,0.95
2023-03-12T02:52:20.415Z,0.98
2023-03-12T02:53:20.376Z,0.92
2023-03-12T02:54:20.362Z,0.91
2023-03-12T02:55:20.348Z,0.94
2023-03-12T02:56:20.347Z,0.91
2023-03-12T02:57:20.333Z,0.91
2023-03-12T02:58:20.311Z,0.95
2023-03-12T02:59:20.304Z,0.96
2023-03-12T03:00:20.299Z,0.94
2023-03-12T03:01:20.347Z,0.88
2023-03-12T03:02:20.296Z,0.87
2023-03-12T03:03:20.256Z,0.87
2023-03-12T03:04:20.303Z,0.91
2023-03-12T03:05:20.230Z,0.96
2023-03-12T03:06:20.213Z,0.88
2023-03-12T03:07:20.205Z,0.86
2023-03-12T03:08:20.209Z,0.87
2023-03-12T03:09:20.165Z,0.84
2023-03-12T03:10:20.154Z,0.84
2023-03-12T03:11:20.156Z,0.83
2023-03-12T03:12:20.135Z,0.81
2023-03-12T03:13:20.126Z,0.94
2023-03-12T03:14:20.100Z,0.98
2023-03-12T03:15:20.102Z,0.95
2023-03-12T03:16:20.076Z,0.94
2023-03-12T03:17:20.074Z,0.95
2023-03-12T03:18:20.058Z,0.94
2023-03-12T03:19:20.054Z,0.95
2023-03-12T03:20:20.031Z,0.95
2023-03-12T03:21:20.028Z,0.96
2023-03-12T03:22:20.014Z,1.01
2023-03-12T03:23:19.994Z,0.96
2023-03-12T03:24:19.998Z,0.98
2023-03-12T03:25:19.967Z,0.88
2023-03-12T03:26:19.954Z,0.95
2023-03-12T03:27:19.937Z,0.92
2023-03-12T03:28:19.924Z,0.94
2023-03-12T03:29:19.909Z,1.05
2023-03-12T03:30:19.896Z,1.04
2023-03-12T03:31:19.981Z,1.04
2023-03-12T03:32:19.919Z,1.06
2023-03-12T03:33:19.857Z,1.05
2023-03-12T03:34:19.854Z,1.14
2023-03-12T03:35:19.842Z,1.17
2023-03-12T03:36:19.824Z,1.26
2023-03-12T03:37:19.814Z,1.24
2023-03-12T03:38:19.803Z,1.28
2023-03-12T03:39:19.782Z,1.32
2023-03-12T03:40:19.791Z,1.40
2023-03-12T03:41:19.766Z,1.41
2023-03-12T03:42:19.748Z,1.38
2023-03-12T03:43:19.741Z,1.44
2023-03-12T03:44:19.723Z,1.49
2023-03-12T03:45:19.710Z,1.45
2023-03-12T03:46:19.808Z,1.53
2023-03-12T03:47:19.671Z,1.52
2023-03-12T03:48:19.660Z,1.53
2023-03-12T03:49:19.650Z,1.49
2023-03-12T03:50:19.636Z,1.49
2023-03-12T03:51:19.627Z,1.49
2023-03-12T03:52:19.609Z,1.44
2023-03-12T03:53:19.599Z,1.48
2023-03-12T03:54:19.580Z,1.50
2023-03-12T03:55:19.568Z,1.56
2023-03-12T03:56:19.588Z,1.49
2023-03-12T03:57:19.543Z,1.55
2023-03-12T03:58:19.538Z,1.53
2023-03-12T03:59:19.513Z,1.45
2023-03-12T04:00:19.506Z,1.48
2023-03-12T04:01:19.509Z,1.52
2023-03-12T04:02:19.478Z,1.52
2023-03-12T04:03:19.471Z,1.52
2023-03-12T04:04:19.458Z,1.50
2023-03-12T04:05:19.644Z,1.59
2023-03-12T04:06:19.424Z,1.56
2023-03-12T04:07:19.440Z,1.55
2023-03-12T04:08:19.398Z,1.56
2023-03-12T04:09:19.387Z,1.59
2023-03-12T04:10:19.385Z,1.55
2023-03-12T04:11:19.388Z,1.59
2023-03-12T04:12:19.371Z,1.58
2023-03-12T04:13:19.338Z,1.60
2023-03-12T04:14:19.330Z,1.58
2023-03-12T04:15:19.315Z,1.63
2023-03-12T04:16:19.356Z,1.63
2023-03-12T04:17:19.284Z,1.58
2023-03-12T04:18:19.341Z,1.60
2023-03-12T04:19:19.263Z,1.59
2023-03-12T04:20:19.255Z,1.55
2023-03-12T04:21:19.228Z,1.60
2023-03-12T04:22:19.228Z,1.56
2023-03-12T04:23:19.203Z,1.63
2023-03-12T04:24:19.191Z,1.67
2023-03-12T04:25:19.188Z,1.66
2023-03-12T04:26:19.173Z,1.67
2023-03-12T04:27:19.152Z,1.70
2023-03-12T04:28:19.180Z,1.71
2023-03-12T04:29:19.135Z,1.76
2023-03-12T04:30:19.120Z,1.74
2023-03-12T04:31:19.277Z,1.80
2023-03-12T04:32:19.130Z,1.80
2023-03-12T04:33:19.073Z,1.77
2023-03-12T04:34:19.076Z,1.73
2023-03-12T04:35:19.058Z,1.80
2023-03-12T04:36:19.042Z,1.84
2023-03-12T04:37:19.030Z,1.77
2023-03-12T04:38:19.012Z,1.81
2023-03-12T04:39:19.009Z,1.84
2023-03-12T04:40:19.002Z,1.87
2023-03-12T04:41:18.980Z,1.87
2023-03-12T04:42:18.970Z,1.76
2023-03-12T04:43:18.948Z,1.78
2023-03-12T04:44:18.970Z,1.80
2023-03-12T04:45:18.922Z,1.87
2023-03-12T04:46:18.966Z,1.80
2023-03-12T04:47:18.898Z,1.87
2023-03-12T04:48:18.889Z,1.87
2023-03-12T04:49:18.899Z,1.87
2023-03-12T04:50:18.863Z,1.95
2023-03-12T04:51:18.855Z,1.85
2023-03-12T04:52:18.842Z,1.92
2023-03-12T04:53:18.923Z,1.97
2023-03-12T04:54:18.809Z,1.92
2023-03-12T04:55:18.796Z,1.97
2023-03-12T04:56:18.781Z,1.94
2023-03-12T04:57:18.768Z,1.92
2023-03-12T04:58:18.764Z,2.00
2023-03-12T04:59:18.752Z,1.94
2023-03-12T05:00:18.774Z,1.89
2023-03-12T05:01:18.730Z,1.88
2023-03-12T05:02:18.710Z,1.84
2023-03-12T05:03:18.692Z,1.87
2023-03-12T05:04:18.679Z,1.85
2023-03-12T05:05:18.674Z,1.81
2023-03-12T05:06:18.661Z,1.84
2023-03-12T05:07:18.639Z,1.84
2023-03-12T05:08:18.632Z,1.84
2023-03-12T05:09:18.624Z,1.84
2023-03-12T05:10:18.601Z,1.87
2023-03-12T05:11:18.592Z,1.85
2023-03-12T05:12:18.577Z,1.85
2023-03-12T05:13:18.572Z,1.87
2023-03-12T05:14:18.552Z,1.85
2023-03-12T05:15:18.554Z,1.89
2023-03-12T05:16:18.589Z,1.87
2023-03-12T05:17:18.521Z,1.91
2023-03-12T05:18:18.499Z,1.88
2023-03-12T05:19:18.493Z,1.88
2023-03-12T05:20:18.470Z,1.85
2023-03-12T05:21:18.481Z,1.87
2023-03-12T05:22:18.459Z,1.87
2023-03-12T05:23:18.435Z,1.91
2023-03-12T05:24:18.428Z,1.87
2023-03-12T05:25:18.424Z,1.92
2023-03-12T05:26:18.436Z,1.87
2023-03-12T05:27:18.387Z,1.84
2023-03-12T05:28:18.377Z,1.88
2023-03-12T05:29:18.363Z,1.87
2023-03-12T05:30:18.348Z,1.84
2023-03-12T05:31:18.365Z,1.81
2023-03-12T05:32:18.362Z,1.89
2023-03-12T05:33:18.312Z,1.85
2023-03-12T05:34:18.303Z,1.88
2023-03-12T05:35:18.278Z,1.85
2023-03-12T05:36:18.281Z,1.88
2023-03-12T05:37:18.258Z,1.88
2023-03-12T05:38:18.253Z,1.89
2023-03-12T05:39:18.237Z,1.89
2023-03-12T05:40:18.211Z,1.88
2023-03-12T05:41:18.212Z,1.97
2023-03-12T05:42:18.196Z,2.02
2023-03-12T05:43:18.190Z,1.99
2023-03-12T05:44:18.158Z,1.99
2023-03-12T05:45:18.155Z,2.02
2023-03-12T05:46:18.199Z,2.06
2023-03-12T05:47:18.133Z,2.07
2023-03-12T05:48:18.139Z,2.06
2023-03-12T05:49:18.105Z,2.07
2023-03-12T05:50:18.082Z,2.02
2023-03-12T05:51:18.065Z,2.07
2023-03-12T05:52:18.062Z,2.07
2023-03-12T05:53:18.052Z,2.07
2023-03-12T05:54:18.035Z,2.08
2023-03-12T05:55:18.029Z,2.07
2023-03-12T05:56:18.000Z,2.02
2023-03-12T05:57:17.999Z,2.06
2023-03-12T05:58:17.993Z,1.99
2023-03-12T05:59:17.963Z,2.04
2023-03-12T06:00:17.975Z,2.04
2023-03-12T06:01:17.946Z,2.02
2023-03-12T06:02:17.989Z,2.04
2023-03-12T06:03:18.032Z,1.99
2023-03-12T06:04:17.929Z,2.00
2023-03-12T06:05:17.899Z,2.02
2023-03-12T06:06:17.867Z,2.06
2023-03-12T06:07:17.858Z,1.99
2023-03-12T06:08:17.847Z,2.04
2023-03-12T06:09:17.838Z,2.04
2023-03-12T06:10:17.827Z,2.00
2023-03-12T06:11:17.807Z,2.07
2023-03-12T06:12:17.786Z,2.04
2023-03-12T06:13:17.778Z,2.08
2023-03-12T06:14:17.763Z,2.08
2023-03-12T06:15:17.763Z,2.08
2023-03-12T06:16:17.818Z,2.13
2023-03-12T06:17:17.731Z,2.13
2023-03-12T06:18:17.709Z,2.08
2023-03-12T06:19:17.713Z,2.15
2023-03-12T06:20:17.720Z,2.13
2023-03-12T06:21:17.699Z,2.13
2023-03-12T06:22:17.674Z,2.15
2023-03-12T06:23:19.719Z,2.18
2023-03-12T06:24:17.646Z,2.18
2023-03-12T06:25:17.621Z,2.20
2023-03-12T06:26:17.617Z,2.22
2023-03-12T06:27:17.595Z,2.22
2023-03-12T06:28:17.604Z,2.18
2023-03-12T06:29:17.586Z,2.20
2023-03-12T06:30:17.557Z,2.25
2023-03-12T06:31:17.661Z,2.24
2023-03-12T06:32:17.579Z,2.25
2023-03-12T06:33:17.515Z,2.25
2023-03-12T06:34:17.523Z,2.28
2023-03-12T06:35:17.499Z,2.33
2023-03-12T06:36:17.517Z,2.35
2023-03-12T06:37:17.464Z,2.42
2023-03-12T06:38:17.451Z,2.38
2023-03-12T06:39:17.449Z,2.39
2023-03-12T06:40:17.425Z,2.43
2023-03-12T06:41:17.420Z,2.44
2023-03-12T06:42:17.399Z,2.44
2023-03-12T06:43:17.395Z,2.47
2023-03-12T06:44:17.385Z,2.42
2023-03-12T06:45:17.359Z,2.46
2023-03-12T06:46:17.508Z,2.47
2023-03-12T06:47:17.867Z,2.49
2023-03-12T06:48:17.332Z,2.49
2023-03-12T06:49:17.331Z,2.50
2023-03-12T06:50:17.305Z,2.49
2023-03-12T06:51:17.305Z,2.54
2023-03-12T06:52:17.296Z,2.56
2023-03-12T06:53:17.267Z,2.57
2023-03-12T06:54:17.251Z,2.64
2023-03-12T06:55:17.242Z,2.64
2023-03-12T06:56:17.217Z,2.64
2023-03-12T06:57:17.223Z,2.69
2023-03-12T06:58:17.213Z,2.69
2023-03-12T06:59:17.190Z,2.74
2023-03-12T07:00:17.163Z,2.79
2023-03-12T07:01:17.155Z,2.75
2023-03-12T07:02:17.219Z,2.80
2023-03-12T07:03:17.128Z,2.80
2023-03-12T07:04:17.135Z,2.85
2023-03-12T07:05:17.170Z,2.86
2023-03-12T07:06:17.099Z,2.83
2023-03-12T07:07:17.111Z,2.83
2023-03-12T07:08:17.098Z,2.85
2023-03-12T07:09:17.061Z,2.90
2023-03-12T07:10:17.056Z,2.89
2023-03-12T07:11:17.026Z,2.95
2023-03-12T07:12:17.026Z,3.03
2023-03-12T07:13:17.004Z,3.10
2023-03-12T07:14:16.997Z,3.11
2023-03-12T07:15:16.993Z,3.14
2023-03-12T07:16:17.057Z,3.16
2023-03-12T07:17:16.954Z,3.23
2023-03-12T07:18:16.941Z,3.26
2023-03-12T07:19:17.335Z,3.31
2023-03-12T07:20:16.920Z,3.31
2023-03-12T07:21:16.901Z,3.28
2023-03-12T07:22:16.896Z,3.28
2023-03-12T07:23:16.887Z,3.32
2023-03-12T07:24:16.894Z,3.28
2023-03-12T07:25:18.945Z,3.23
2023-03-12T07:26:16.839Z,3.21
2023-03-12T07:27:16.829Z,3.25
2023-03-12T07:28:16.810Z,3.28
2023-03-12T07:29:16.821Z,3.26
2023-03-12T07:30:16.835Z,3.31
2023-03-12T07:31:16.881Z,3.31
2023-03-12T07:32:16.829Z,3.32
2023-03-12T07:33:16.920Z,3.32
2023-03-12T07:34:16.918Z,3.34
2023-03-12T07:35:16.732Z,3.41
2023-03-12T07:36:16.789Z,3.47
2023-03-12T07:37:16.694Z,3.58
2023-03-12T07:38:16.707Z,3.70
2023-03-12T07:39:16.673Z,3.80
2023-03-12T07:40:16.685Z,3.91
2023-03-12T07:41:16.711Z,3.95
2023-03-12T07:42:16.729Z,3.94
2023-03-12T07:43:16.632Z,3.95
2023-03-12T07:44:16.608Z,4.16
2023-03-12T07:45:16.616Z,4.44
2023-03-12T07:46:16.651Z,4.86
2023-03-12T07:47:23.788Z,4.90
2023-03-12T07:48:17.652Z,5.05
2023-03-12T07:49:16.542Z,5.17
2023-03-12T07:50:16.580Z,5.61
2023-03-12T07:51:16.513Z,5.87
2023-03-12T07:52:16.577Z,5.98
2023-03-12T07:53:16.477Z,6.41
2023-03-12T07:54:16.469Z,6.42
2023-03-12T07:55:16.686Z,6.38
2023-03-12T07:56:16.734Z,6.38
2023-03-12T07:57:16.558Z,6.38
2023-03-12T07:58:16.578Z,6.35
2023-03-12T07:59:16.598Z,6.04
2023-03-12T08:00:16.437Z,5.97
2023-03-12T08:01:16.391Z,5.94
2023-03-12T08:02:16.496Z,5.89
2023-03-12T08:03:16.524Z,5.69
2023-03-12T08:04:16.432Z,5.43
2023-03-12T08:05:16.336Z,5.33
2023-03-12T08:06:16.362Z,5.17
2023-03-12T08:07:16.413Z,5.07
2023-03-12T08:08:16.322Z,5.05
2023-03-12T08:09:16.269Z,5.02
2023-03-12T08:10:16.369Z,4.94
2023-03-12T08:11:16.246Z,4.93
2023-03-12T08:12:16.351Z,4.94
2023-03-12T08:13:16.287Z,4.92
2023-03-12T08:14:16.219Z,4.93
2023-03-12T08:15:16.217Z,4.94
2023-03-12T08:16:16.219Z,4.94
2023-03-12T08:17:16.188Z,4.99
2023-03-12T08:18:16.168Z,4.93
2023-03-12T08:19:16.134Z,4.92
2023-03-12T08:20:16.134Z,4.84
2023-03-12T08:21:16.594Z,4.89
2023-03-12T08:22:16.123Z,4.87
2023-03-12T08:23:16.094Z,4.89
2023-03-12T08:24:16.086Z,4.92
2023-03-12T08:25:16.112Z,4.96
2023-03-12T08:26:16.067Z,4.97
2023-03-12T08:27:16.076Z,5.04
2023-03-12T08:28:16.080Z,5.04
2023-03-12T08:29:16.022Z,5.12
2023-03-12T08:30:16.011Z,5.14
2023-03-12T08:31:16.037Z,5.15
2023-03-12T08:32:16.094Z,5.17
2023-03-12T08:33:15.976Z,5.18
2023-03-12T08:34:15.955Z,5.20
2023-03-12T08:35:15.944Z,5.25
2023-03-12T08:36:15.926Z,5.23
2023-03-12T08:37:15.921Z,5.29
2023-03-12T08:38:15.907Z,5.32
2023-03-12T08:39:15.881Z,5.36
2023-03-12T08:40:15.886Z,5.35
2023-03-12T08:41:15.869Z,5.35
2023-03-12T08:42:15.855Z,5.32
2023-03-12T08:43:15.841Z,5.38
2023-03-12T08:44:15.858Z,5.41
2023-03-12T08:45:15.871Z,5.44
2023-03-12T08:46:15.911Z,5.47
2023-03-12T08:47:15.792Z,5.43
2023-03-12T08:48:15.777Z,5.48
2023-03-12T08:49:15.768Z,5.50
2023-03-12T08:50:15.768Z,5.56
2023-03-12T08:51:16.939Z,5.57
2023-03-12T08:52:15.729Z,5.62
2023-03-12T08:53:15.716Z,5.72
2023-03-12T08:54:15.719Z,5.76
2023-03-12T08:55:15.682Z,5.71
2023-03-12T08:56:15.684Z,5.72
2023-03-12T08:57:15.673Z,5.79
2023-03-12T08:58:15.649Z,5.80
2023-03-12T08:59:15.642Z,5.91
2023-03-12T09:00:15.660Z,5.97
2023-03-12T09:01:15.609Z,6.17
2023-03-12T09:02:15.594Z,6.44
2023-03-12T09:03:15.611Z,6.46
2023-03-12T09:04:15.632Z,6.49
2023-03-12T09:05:15.570Z,6.52
2023-03-12T09:06:15.553Z,6.51
2023-03-12T09:07:15.541Z,6.59
2023-03-12T09:08:15.525Z,6.77
2023-03-12T09:09:15.523Z,6.79
2023-03-12T09:10:15.498Z,6.95
2023-03-12T09:11:15.492Z,7.03
2023-03-12T09:12:15.474Z,7.21
2023-03-12T09:13:15.479Z,7.42
2023-03-12T09:14:57.578Z,7.51
2023-03-12T09:15:16.492Z,7.58
2023-03-12T09:16:15.480Z,7.72
2023-03-12T09:17:15.415Z,7.75
2023-03-12T09:18:15.449Z,7.60
2023-03-12T09:19:15.387Z,7.58
2023-03-12T09:20:15.372Z,7.66
2023-03-12T09:21:15.358Z,7.72
2023-03-12T09:22:15.343Z,7.77
2023-03-12T09:23:15.335Z,7.72
2023-03-12T09:24:15.330Z,7.83
2023-03-12T09:25:15.308Z,7.91
2023-03-12T09:26:15.292Z,8.05
2023-03-12T09:27:15.288Z,8.10
2023-03-12T09:28:16.642Z,8.18
2023-03-12T09:29:15.245Z,8.05
2023-03-12T09:30:15.244Z,8.01
2023-03-12T09:31:15.340Z,7.87
2023-03-12T09:32:15.283Z,7.72
2023-03-12T09:33:15.213Z,7.97
2023-03-12T09:34:15.220Z,8.33
2023-03-12T09:35:15.204Z,8.61
2023-03-12T09:36:15.189Z,8.61
2023-03-12T09:37:15.152Z,8.53
2023-03-12T09:38:15.135Z,8.42
2023-03-12T09:39:15.132Z,8.36
2023-03-12T09:40:15.129Z,8.33
2023-03-12T09:41:15.109Z,8.38
2023-03-12T09:42:15.095Z,8.46
2023-03-12T09:43:15.089Z,8.49
2023-03-12T09:44:15.067Z,8.46
2023-03-12T09:45:15.050Z,8.44
2023-03-12T09:46:15.135Z,8.45
2023-03-12T09:47:15.019Z,8.49
2023-03-12T09:48:15.048Z,8.49
2023-03-12T09:49:14.999Z,8.36
2023-03-12T09:50:15.000Z,8.37
2023-03-12T09:51:14.966Z,8.42
2023-03-12T09:52:14.951Z,8.42
2023-03-12T09:53:14.944Z,8.38
2023-03-12T09:54:14.927Z,8.36
2023-03-12T09:55:15.049Z,8.30
2023-03-12T09:56:14.923Z,8.34
2023-03-12T09:57:14.891Z,8.34
2023-03-12T09:58:14.877Z,8.36
2023-03-12T09:59:14.877Z,8.33
2023-03-12T10:00:14.850Z,8.28
2023-03-12T10:01:14.853Z,8.28
2023-03-12T10:02:14.834Z,8.24
2023-03-12T10:03:14.880Z,8.20
2023-03-12T10:04:14.891Z,8.33
2023-03-12T10:05:14.903Z,8.45
2023-03-12T10:06:14.882Z,8.45
2023-03-12T10:07:14.768Z,8.53
2023-03-12T10:08:24.358Z,8.46
2023-03-12T10:09:15.783Z,8.49
2023-03-12T10:10:14.725Z,8.45
2023-03-12T10:11:14.711Z,8.45
2023-03-12T10:12:14.703Z,8.49
2023-03-12T10:13:14.682Z,8.53
2023-03-12T10:14:23.378Z,8.60
2023-03-12T10:15:15.714Z,8.70
2023-03-12T10:16:14.684Z,8.67
2023-03-12T10:17:14.644Z,8.67
2023-03-12T10:18:14.741Z,8.66
2023-03-12T10:19:14.619Z,8.56
2023-03-12T10:20:14.640Z,8.52
2023-03-12T10:21:14.573Z,8.48
2023-03-12T10:22:14.572Z,8.45
2023-03-12T10:23:14.557Z,8.51
2023-03-12T10:24:14.545Z,8.48
2023-03-12T10:25:14.541Z,8.44
2023-03-12T10:26:14.518Z,8.45
2023-03-12T10:27:14.509Z,8.49
2023-03-12T10:28:14.485Z,8.49
2023-03-12T10:29:14.470Z,8.49
2023-03-12T10:30:14.463Z,8.51
2023-03-12T10:31:14.489Z,8.51
2023-03-12T10:32:14.482Z,8.46
2023-03-12T10:33:14.419Z,8.44
2023-03-12T10:34:14.421Z,8.45
2023-03-12T10:35:14.426Z,8.45
2023-03-12T10:36:14.420Z,8.41
2023-03-12T10:37:14.364Z,8.42
2023-03-12T10:38:14.354Z,8.36
2023-03-12T10:39:14.347Z,8.34
2023-03-12T10:40:14.340Z,8.33
2023-03-12T10:41:14.327Z,8.27
2023-03-12T10:42:14.301Z,8.27
2023-03-12T10:43:14.291Z,8.27
2023-03-12T10:44:14.271Z,8.26
2023-03-12T10:45:14.259Z,8.24
2023-03-12T10:46:14.266Z,8.19
2023-03-12T10:47:14.232Z,8.26
2023-03-12T10:48:14.232Z,8.26
2023-03-12T10:49:14.218Z,8.20
2023-03-12T10:50:14.223Z,8.19
2023-03-12T10:51:14.190Z,8.15
2023-03-12T10:52:14.189Z,8.15
2023-03-12T10:53:14.150Z,8.18
2023-03-12T10:54:14.159Z,8.15
2023-03-12T10:55:14.123Z,8.16
2023-03-12T10:56:14.121Z,8.16
2023-03-12T10:57:14.109Z,8.18
2023-03-12T10:58:14.098Z,8.18
2023-03-12T10:59:14.658Z,8.20
2023-03-12T11:00:14.059Z,8.19
2023-03-12T11:01:14.050Z,8.15
2023-03-12T11:02:14.034Z,8.10
2023-03-12T11:03:14.021Z,8.08
2023-03-12T11:04:14.009Z,8.03
2023-03-12T11:05:13.993Z,8.00
2023-03-12T11:06:14.053Z,8.00
2023-03-12T11:07:13.961Z,7.98
2023-03-12T11:08:13.998Z,7.98
2023-03-12T11:09:17.090Z,7.97
2023-03-12T11:10:14.513Z,7.91
2023-03-12T11:11:13.935Z,7.83
2023-03-12T11:12:13.897Z,7.83
2023-03-12T11:13:13.894Z,7.85
2023-03-12T11:14:13.881Z,7.88
2023-03-12T11:15:13.862Z,7.88
2023-03-12T11:16:13.901Z,7.94
2023-03-12T11:17:13.842Z,8.00
2023-03-12T11:18:13.825Z,8.01
2023-03-12T11:19:13.814Z,8.01
2023-03-12T11:20:13.798Z,8.01
2023-03-12T11:21:13.782Z,8.05
2023-03-12T11:22:13.777Z,8.06
2023-03-12T11:23:13.761Z,8.10
2023-03-12T11:24:13.767Z,8.15
2023-03-12T11:25:13.735Z,8.20
2023-03-12T11:26:13.720Z,8.26
2023-03-12T11:27:13.702Z,8.31
2023-03-12T11:28:13.777Z,8.38
2023-03-12T11:29:13.692Z,8.46
2023-03-12T11:30:13.781Z,8.49
2023-03-12T11:31:13.719Z,8.52
2023-03-12T11:32:13.641Z,8.66
2023-03-12T11:33:13.617Z,8.85
2023-03-12T11:34:13.606Z,8.94
2023-03-12T11:35:13.601Z,9.21
2023-03-12T11:36:13.591Z,9.44
2023-03-12T11:37:13.575Z,9.61
2023-03-12T11:38:13.563Z,9.66
2023-03-12T11:39:13.554Z,9.62
2023-03-12T11:40:13.570Z,9.65
2023-03-12T11:41:13.523Z,9.64
2023-03-12T11:42:13.511Z,9.69
2023-03-12T11:43:13.495Z,9.64
2023-03-12T11:44:13.484Z,9.68
2023-03-12T11:45:13.464Z,9.72
2023-03-12T11:46:13.571Z,9.68
2023-03-12T11:47:13.484Z,9.66
2023-03-12T11:48:13.484Z,9.64
2023-03-12T11:49:13.417Z,9.62
2023-03-12T11:50:13.395Z,9.56
2023-03-12T11:51:13.388Z,9.46
2023-03-12T11:52:13.371Z,9.44
2023-03-12T11:53:13.387Z,9.47
2023-03-12T11:54:13.356Z,9.54
2023-03-12T11:55:16.314Z,9.61
2023-03-12T11:56:13.356Z,9.69
2023-03-12T11:57:13.319Z,9.74
2023-03-12T11:58:13.308Z,9.80
2023-03-12T11:59:13.293Z,9.87
2023-03-12T12:00:13.270Z,9.92
2023-03-12T12:01:13.274Z,9.99
2023-03-12T12:02:13.366Z,9.99
2023-03-12T12:03:13.344Z,10.01
2023-03-12T12:04:13.227Z,10.04
2023-03-12T12:05:13.207Z,10.04
2023-03-12T12:06:13.204Z,9.95
2023-03-12T12:07:13.188Z,9.80
2023-03-12T12:08:13.193Z,9.74
2023-03-12T12:09:13.163Z,9.72
2023-03-12T12:10:13.156Z,9.77
2023-03-12T12:11:13.142Z,9.73
2023-03-12T12:12:13.156Z,9.83
2023-03-12T12:13:13.106Z,9.87
2023-03-12T12:14:13.098Z,9.92
2023-03-12T12:15:13.095Z,9.97
2023-03-12T12:16:13.112Z,9.94
2023-03-12T12:17:13.062Z,9.84
2023-03-12T12:18:13.048Z,9.82
2023-03-12T12:19:13.034Z,9.72
2023-03-12T12:20:13.014Z,9.66
2023-03-12T12:21:13.017Z,9.74
2023-03-12T12:22:12.989Z,9.73
2023-03-12T12:23:12.977Z,9.76
2023-03-12T12:24:12.975Z,9.79
2023-03-12T12:25:12.954Z,9.83
2023-03-12T12:26:12.936Z,9.91
2023-03-12T12:27:12.924Z,9.98
2023-03-12T12:28:12.943Z,9.99
2023-03-12T12:29:12.910Z,10.01
2023-03-12T12:30:12.898Z,10.02
2023-03-12T12:31:12.892Z,9.99
2023-03-12T12:32:12.889Z,9.95
2023-03-12T12:33:12.856Z,9.92
2023-03-12T12:34:12.841Z,9.91
2023-03-12T12:35:14.190Z,9.86
2023-03-12T12:36:12.898Z,9.80
2023-03-12T12:37:12.812Z,9.76
2023-03-12T12:38:12.804Z,9.68
2023-03-12T12:39:12.773Z,9.72
2023-03-12T12:40:12.788Z,9.72
2023-03-12T12:41:12.765Z,9.77
2023-03-12T12:42:12.749Z,9.80
2023-03-12T12:43:12.749Z,9.82
2023-03-12T12:44:12.741Z,9.76
2023-03-12T12:45:12.724Z,9.76
2023-03-12T12:46:12.792Z,9.77
2023-03-12T12:47:12.701Z,9.73
2023-03-12T12:48:12.674Z,9.73
2023-03-12T12:49:12.649Z,9.66
2023-03-12T12:50:12.633Z,9.61
2023-03-12T12:51:12.627Z,9.61
2023-03-12T12:52:12.615Z,9.56
2023-03-12T12:53:12.612Z,9.50
2023-03-12T12:54:12.588Z,9.51
2023-03-12T12:55:12.570Z,9.50
2023-03-12T12:56:15.303Z,9.50
2023-03-12T12:57:12.558Z,9.51
2023-03-12T12:58:12.534Z,9.55
2023-03-12T12:59:12.517Z,9.58
2023-03-12T13:00:12.524Z,9.61
2023-03-12T13:01:12.557Z,9.68
2023-03-12T13:02:12.484Z,9.77
2023-03-12T13:03:12.474Z,9.86
2023-03-12T13:04:12.517Z,9.97
2023-03-12T13:05:12.447Z,10.05
2023-03-12T13:06:12.442Z,10.15
2023-03-12T13:07:12.458Z,10.31
2023-03-12T13:08:12.428Z,10.38
2023-03-12T13:09:12.407Z,10.38
2023-03-12T13:10:12.393Z,10.41
2023-03-12T13:11:19.417Z,10.53
2023-03-12T13:12:13.400Z,10.59
2023-03-12T13:13:12.344Z,10.64
2023-03-12T13:14:12.362Z,10.71
2023-03-12T13:15:12.331Z,10.82
2023-03-12T13:16:12.459Z,10.90
2023-03-12T13:17:12.291Z,10.99